Cape Hatteras Natl Seashore, North Carolina
Current Conditions -  °F | °C
As of 2:51 AM on Monday 26 Jan 2015 (Local Time) from KHSE Reporting Station
Clear Clear  
Wind Chill: 44°   Ceiling: Unl
Heat Index: 47°   Visibility: 10mi
Dew Point: 41°   Wind: 7mph
Humidity: 80%   Direction: 50°NE
Pressure: 29.79"   Gusts: NA
Location:  35.22°N, 75.68°W
Report Text: KHSE 260751Z AUTO 05006KT 10SM CLR 08/05 A2979 RMK AO2 SLP086 T00830050 TSNO
Loading
Personal Weather Stations






























Interactive Weather Map New forecast layout! Learn more

10-Day Weather Forecast

Advertisements
Track Severe Weather on mobile